Time;durP1;ratioP1;P1;durP2;ratioP2;P2;SDS_P1;SDS_P2;PMS_P1;PMS_P2;Temp;Humidity;BMP_temperature;BMP_pressure;BME280_temperature;BME280_humidity;BME280_pressure;Samples;Min_cycle;Max_cycle;Signal;HPM_P1;HPM_P2
2022/08/23 00:01:14;;;;;;;6.13;5.27;;;19.50;99.90;;;;;;5070277;28;20547;-66
2022/08/23 00:03:41;;;;;;;7.00;5.47;;;19.40;99.90;;;;;;5069476;28;20581;-66
2022/08/23 00:06:07;;;;;;;6.40;5.63;;;19.50;99.90;;;;;;5071253;28;20556;-66
2022/08/23 00:08:33;;;;;;;9.83;6.53;;;19.50;99.90;;;;;;5069972;28;20178;-66
2022/08/23 00:10:59;;;;;;;7.13;6.50;;;19.50;99.90;;;;;;5070060;28;20248;-66
2022/08/23 00:13:25;;;;;;;7.57;6.83;;;19.40;99.90;;;;;;5070913;28;20398;-66
2022/08/23 00:15:51;;;;;;;8.63;6.80;;;19.40;99.90;;;;;;5071008;28;20251;-66
2022/08/23 00:18:17;;;;;;;6.17;5.77;;;19.40;99.90;;;;;;5073407;28;20566;-66
2022/08/23 00:20:43;;;;;;;8.33;6.40;;;19.30;99.90;;;;;;5075178;28;20163;-66
2022/08/23 00:23:09;;;;;;;7.70;5.70;;;19.30;99.90;;;;;;5073707;28;20178;-66
2022/08/23 00:25:34;;;;;;;8.40;5.70;;;19.10;99.90;;;;;;5072768;28;20194;-66
2022/08/23 00:28:00;;;;;;;7.33;5.60;;;19.00;99.90;;;;;;5075115;28;20189;-66
2022/08/23 00:30:26;;;;;;;8.97;6.10;;;18.90;99.90;;;;;;5074584;28;20171;-66
2022/08/23 00:32:52;;;;;;;7.80;5.10;;;18.90;99.90;;;;;;5075119;28;20193;-66
2022/08/23 00:35:19;;;;;;;10.93;6.30;;;18.90;99.90;;;;;;5074463;28;20272;-66
2022/08/23 00:37:45;;;;;;;8.70;5.90;;;18.80;99.90;;;;;;5074619;28;20170;-66
2022/08/23 00:40:14;;;;;;;8.30;6.40;;;18.70;99.90;;;;;;5074943;28;20201;-66
2022/08/23 00:48:22;;;;;;;12.40;6.70;;;18.60;99.90;;;;;;5074898;28;20547;-66
2022/08/23 00:50:51;;;;;;;7.43;5.93;;;18.60;99.90;;;;;;5074564;28;20170;-66
2022/08/23 00:53:26;;;;;;;6.90;6.23;;;18.60;99.90;;;;;;5074900;28;20171;-66
2022/08/23 00:55:56;;;;;;;7.47;6.27;;;18.50;99.90;;;;;;5074312;28;20273;-66
2022/08/23 00:58:23;;;;;;;10.77;6.67;;;18.50;99.90;;;;;;5074779;28;20190;-66
2022/08/23 01:00:52;;;;;;;7.73;6.93;;;18.50;99.90;;;;;;5074529;28;20166;-66
2022/08/23 01:03:20;;;;;;;12.03;6.83;;;18.50;99.90;;;;;;5074427;28;20166;-66
2022/08/23 01:06:07;;;;;;;8.43;6.50;;;18.50;99.90;;;;;;5072710;28;20543;-66
2022/08/23 01:08:35;;;;;;;12.93;8.97;;;18.40;99.90;;;;;;5074195;28;20257;-66
2022/08/23 01:11:10;;;;;;;9.43;6.87;;;18.40;99.90;;;;;;5074183;28;20181;-66
2022/08/23 01:13:46;;;;;;;8.30;7.33;;;18.30;99.90;;;;;;5073750;28;20596;-66
2022/08/23 01:16:22;;;;;;;9.13;7.87;;;18.10;99.90;;;;;;5072559;28;20204;-66
2022/08/23 01:18:49;;;;;;;10.47;9.47;;;18.10;99.90;;;;;;5073811;28;20210;-66
2022/08/23 01:21:22;;;;;;;12.63;10.60;;;18.10;99.90;;;;;;5073920;28;20186;-66
2022/08/23 01:23:52;;;;;;;7.67;6.97;;;18.10;99.90;;;;;;5073548;28;20181;-66
2022/08/23 01:26:20;;;;;;;9.53;6.67;;;18.20;99.90;;;;;;5073544;28;20600;-66
2022/08/23 01:28:46;;;;;;;10.03;9.10;;;18.10;99.90;;;;;;5072442;28;20595;-66
2022/08/23 01:31:13;;;;;;;13.70;7.93;;;18.10;99.90;;;;;;5073705;28;20174;-66
2022/08/23 01:33:40;;;;;;;10.20;8.40;;;18.00;99.90;;;;;;5073202;28;20205;-66
2022/08/23 01:36:10;;;;;;;8.67;7.83;;;18.00;99.90;;;;;;5072285;28;20193;-66
2022/08/23 01:38:36;;;;;;;8.93;6.57;;;18.00;99.90;;;;;;5073456;28;20190;-66
2022/08/23 01:41:02;;;;;;;9.53;6.50;;;17.90;99.90;;;;;;5072174;28;20174;-66
2022/08/23 01:43:28;;;;;;;7.53;6.43;;;17.90;99.90;;;;;;5072926;28;20257;-66
2022/08/23 01:45:54;;;;;;;7.87;7.10;;;17.90;99.90;;;;;;5072413;28;20262;-66
2022/08/23 01:48:20;;;;;;;9.10;8.20;;;17.70;99.90;;;;;;5070880;28;20227;-66
2022/08/23 01:50:46;;;;;;;9.00;8.17;;;17.70;99.90;;;;;;5071654;28;20235;-66
2022/08/23 01:53:12;;;;;;;8.60;8.07;;;17.60;99.90;;;;;;5072542;28;20189;-66
2022/08/23 01:55:40;;;;;;;10.40;8.87;;;17.60;99.90;;;;;;5070487;28;20194;-66
2022/08/23 01:58:06;;;;;;;14.00;9.37;;;17.60;99.90;;;;;;5072370;28;20282;-66
2022/08/23 02:00:39;;;;;;;10.30;9.30;;;17.50;99.90;;;;;;5070738;28;20178;-66
2022/08/23 02:03:06;;;;;;;11.53;9.73;;;17.50;99.90;;;;;;5072510;28;20163;-66
2022/08/23 02:05:33;;;;;;;8.60;7.80;;;17.50;99.90;;;;;;5070392;28;20186;-66
2022/08/23 02:08:59;;;;;;;10.57;9.67;;;17.40;99.90;;;;;;5072457;28;20202;-65
2022/08/23 02:10:44;;;;;;;11.40;8.80;;;17.40;99.90;;;;;;5071462;28;20185;-65
2022/08/23 02:13:11;;;;;;;10.83;10.00;;;17.30;99.90;;;;;;5071928;28;20178;-66
2022/08/23 02:15:38;;;;;;;12.47;11.00;;;17.30;99.90;;;;;;5071310;28;20570;-66
2022/08/23 02:18:05;;;;;;;13.00;10.57;;;17.20;99.90;;;;;;5072313;28;20189;-66
2022/08/23 02:20:30;;;;;;;10.77;9.43;;;17.30;99.90;;;;;;5071436;28;20170;-66
2022/08/23 02:22:56;;;;;;;11.90;11.00;;;17.30;99.90;;;;;;5070694;28;20174;-66
2022/08/23 02:25:22;;;;;;;12.50;11.40;;;17.40;99.90;;;;;;5071348;28;20191;-66
2022/08/23 02:27:47;;;;;;;14.63;13.30;;;17.30;99.90;;;;;;5071590;28;20227;-66
2022/08/23 02:30:13;;;;;;;16.67;15.70;;;17.40;99.90;;;;;;5071803;28;20231;-66
2022/08/23 02:32:39;;;;;;;16.63;15.47;;;17.40;99.90;;;;;;5070293;28;20178;-66
2022/08/23 02:35:05;;;;;;;21.03;19.33;;;17.40;99.90;;;;;;5069177;28;20213;-66
2022/08/23 02:37:30;;;;;;;16.43;15.07;;;17.40;99.90;;;;;;5071762;28;20636;-66
2022/08/23 02:39:56;;;;;;;22.90;21.37;;;17.40;99.90;;;;;;5070746;28;20205;-66
2022/08/23 02:42:21;;;;;;;15.20;13.80;;;17.30;99.90;;;;;;5069951;28;20275;-66
2022/08/23 02:44:47;;;;;;;12.48;11.60;;;17.20;99.90;;;;;;5031993;28;1119736;-66
2022/08/23 02:47:13;;;;;;;11.20;10.17;;;17.20;99.90;;;;;;5072358;28;20219;-66
2022/08/23 02:49:38;;;;;;;9.40;8.70;;;17.10;99.90;;;;;;5072075;28;20622;-66
2022/08/23 02:52:05;;;;;;;9.10;8.07;;;17.10;99.90;;;;;;5070905;28;20186;-66
2022/08/23 02:54:32;;;;;;;9.77;8.43;;;17.00;99.90;;;;;;5071955;28;20200;-66
2022/08/23 02:56:58;;;;;;;11.00;9.97;;;17.00;99.90;;;;;;5070744;28;20202;-66
2022/08/23 02:59:24;;;;;;;10.10;9.23;;;17.00;99.90;;;;;;5072076;28;20209;-66
2022/08/23 03:01:50;;;;;;;10.17;8.17;;;17.00;99.90;;;;;;5070668;28;20256;-66
2022/08/23 03:04:16;;;;;;;9.17;8.27;;;17.00;99.90;;;;;;5072158;28;20158;-66
2022/08/23 03:06:42;;;;;;;8.97;7.90;;;17.10;99.90;;;;;;5071455;28;20210;-66
2022/08/23 03:09:07;;;;;;;6.77;6.20;;;17.00;99.90;;;;;;5070504;28;20185;-66
2022/08/23 03:11:34;;;;;;;8.33;7.53;;;16.90;99.90;;;;;;5071456;28;20190;-66
2022/08/23 03:14:00;;;;;;;8.60;7.73;;;16.80;99.90;;;;;;5071582;28;20174;-66
2022/08/23 03:16:26;;;;;;;10.07;8.93;;;16.80;99.90;;;;;;5071746;28;20659;-66
2022/08/23 03:18:52;;;;;;;8.57;7.87;;;16.70;99.90;;;;;;5071745;28;20343;-66
2022/08/23 03:21:19;;;;;;;10.57;7.90;;;16.70;99.90;;;;;;5071586;28;20206;-66
2022/08/23 03:23:45;;;;;;;8.70;7.80;;;16.60;99.90;;;;;;5069841;28;20269;-66
2022/08/23 03:26:12;;;;;;;8.80;7.97;;;16.60;99.90;;;;;;5071596;28;20332;-66
2022/08/23 03:28:39;;;;;;;9.53;8.33;;;16.50;99.90;;;;;;5070395;28;20200;-66
2022/08/23 03:31:06;;;;;;;9.23;8.20;;;16.50;99.90;;;;;;5070377;28;20186;-66
2022/08/23 03:33:33;;;;;;;9.37;8.67;;;16.50;99.90;;;;;;5069889;28;20601;-66
2022/08/23 03:36:00;;;;;;;9.87;9.07;;;16.60;99.90;;;;;;5070082;28;20208;-66
2022/08/23 03:38:26;;;;;;;10.13;9.13;;;16.50;99.90;;;;;;5071464;28;20611;-66
2022/08/23 03:40:52;;;;;;;9.50;8.67;;;16.50;99.90;;;;;;5071094;28;20239;-66
2022/08/23 03:43:19;;;;;;;9.60;8.43;;;16.50;99.90;;;;;;5071498;28;20170;-66
2022/08/23 03:45:45;;;;;;;10.03;7.57;;;16.60;99.90;;;;;;5070994;28;20225;-66
2022/08/23 03:48:11;;;;;;;8.73;7.90;;;16.60;99.90;;;;;;5071599;28;20174;-66
2022/08/23 03:50:37;;;;;;;8.97;8.07;;;16.50;99.90;;;;;;5070696;28;20239;-66
2022/08/23 03:53:03;;;;;;;10.37;7.97;;;16.50;99.90;;;;;;5071046;28;20178;-66
2022/08/23 03:55:29;;;;;;;8.60;7.70;;;16.40;99.90;;;;;;5069087;28;20697;-66
2022/08/23 03:57:54;;;;;;;8.07;7.27;;;16.40;99.90;;;;;;5070229;28;20178;-66
2022/08/23 04:00:20;;;;;;;8.33;7.60;;;16.30;99.90;;;;;;5069828;28;20565;-66
2022/08/23 04:02:46;;;;;;;10.83;8.17;;;16.30;99.90;;;;;;5072124;28;20235;-66
2022/08/23 04:05:11;;;;;;;13.47;8.53;;;16.30;99.90;;;;;;5070707;28;20229;-66
2022/08/23 04:07:38;;;;;;;10.63;7.80;;;16.20;99.90;;;;;;5070959;28;20177;-66
2022/08/23 04:10:06;;;;;;;9.03;8.13;;;16.20;99.90;;;;;;5071584;28;20631;-66
2022/08/23 04:12:32;;;;;;;9.93;7.97;;;16.20;99.90;;;;;;5069478;28;20206;-66
2022/08/23 04:14:58;;;;;;;8.80;7.90;;;16.20;99.90;;;;;;5069380;28;20265;-66
2022/08/23 04:17:24;;;;;;;9.33;8.43;;;16.20;99.90;;;;;;5069533;28;20218;-66
2022/08/23 04:19:50;;;;;;;12.07;9.33;;;16.10;99.90;;;;;;5069696;28;20580;-66
2022/08/23 04:22:17;;;;;;;8.93;8.13;;;16.00;99.90;;;;;;5069358;28;21568;-66
2022/08/23 04:24:44;;;;;;;11.43;8.50;;;16.00;99.90;;;;;;5069266;28;20178;-66
2022/08/23 04:27:11;;;;;;;9.43;8.67;;;16.00;99.90;;;;;;5069355;28;20545;-66
2022/08/23 04:29:38;;;;;;;9.10;8.23;;;16.00;99.90;;;;;;5070684;28;20182;-66
2022/08/23 04:32:05;;;;;;;12.73;9.87;;;16.00;99.90;;;;;;5070815;28;20184;-66
2022/08/23 04:34:32;;;;;;;17.87;8.93;;;16.00;99.90;;;;;;5069690;28;20182;-66
2022/08/23 04:36:58;;;;;;;9.67;8.70;;;16.00;99.90;;;;;;5069303;28;20210;-66
2022/08/23 04:39:24;;;;;;;11.73;8.80;;;16.10;99.90;;;;;;5069464;28;20612;-66
2022/08/23 04:44:55;;;;;;;13.23;9.40;;;16.20;99.90;;;;;;5008265;28;20171;-66
2022/08/23 04:47:20;;;;;;;16.83;9.60;;;16.30;99.90;;;;;;5054143;22;20778;-64
2022/08/23 04:49:46;;;;;;;10.63;9.53;;;16.30;99.90;;;;;;5031225;28;20184;-64
2022/08/23 04:52:13;;;;;;;13.37;9.70;;;16.40;99.90;;;;;;5031043;28;20309;-65
2022/08/23 04:54:39;;;;;;;14.27;9.23;;;16.40;99.90;;;;;;5031064;28;20182;-66
2022/08/23 04:57:04;;;;;;;12.03;7.97;;;16.50;99.90;;;;;;5030781;28;20200;-65
2022/08/23 04:59:30;;;;;;;12.50;9.00;;;16.50;99.90;;;;;;5029260;28;20219;-65
2022/08/23 05:01:56;;;;;;;16.27;9.47;;;16.60;99.90;;;;;;5031210;28;20656;-65
2022/08/23 05:04:21;;;;;;;12.47;10.27;;;16.60;99.90;;;;;;5033743;28;20178;-66
2022/08/23 05:06:47;;;;;;;10.17;8.27;;;16.70;99.90;;;;;;5033900;28;20258;-66
2022/08/23 05:09:13;;;;;;;9.17;8.27;;;16.80;99.90;;;;;;5033978;28;20175;-66
2022/08/23 05:11:39;;;;;;;9.63;8.17;;;16.80;99.90;;;;;;5034040;28;20652;-64
2022/08/23 05:14:04;;;;;;;12.27;8.57;;;16.90;99.90;;;;;;5050908;28;20193;-65
2022/08/23 05:16:30;;;;;;;11.67;9.67;;;16.90;99.90;;;;;;5051233;28;20207;-64
2022/08/23 05:18:56;;;;;;;15.13;10.83;;;17.00;99.90;;;;;;5034466;28;20230;-63
2022/08/23 05:21:23;;;;;;;11.03;10.03;;;17.10;99.90;;;;;;5034176;28;20172;-64
2022/08/23 05:23:50;;;;;;;11.23;7.43;;;17.20;99.90;;;;;;5033959;28;20167;-65
2022/08/23 05:26:16;;;;;;;8.27;7.47;;;17.30;99.90;;;;;;5033685;28;20187;-65
2022/08/23 05:28:47;;;;;;;8.13;7.50;;;17.30;99.90;;;;;;5034039;28;20191;-64
2022/08/23 05:31:16;;;;;;;9.97;7.77;;;17.40;99.90;;;;;;5033977;28;20618;-64
2022/08/23 05:33:43;;;;;;;8.47;7.30;;;17.60;99.90;;;;;;5033462;28;20286;-64
2022/08/23 05:36:10;;;;;;;12.17;11.30;;;17.70;99.90;;;;;;5033689;28;20202;-65
2022/08/23 05:38:37;;;;;;;11.83;7.07;;;17.80;99.90;;;;;;5032223;28;20306;-65
2022/08/23 05:41:04;;;;;;;9.90;8.13;;;17.90;99.90;;;;;;5033745;28;20191;-65
2022/08/23 05:43:30;;;;;;;14.57;8.10;;;18.10;99.90;;;;;;5033231;28;20180;-67
2022/08/23 05:46:12;;;;;;;10.00;9.00;;;18.20;99.90;;;;;;5033567;28;20211;-67
2022/08/23 05:48:39;;;;;;;7.77;6.67;;;18.40;99.90;;;;;;5034041;28;20191;-66
2022/08/23 05:51:28;;;;;;;7.63;6.80;;;18.60;99.90;;;;;;5033351;28;20176;-67
2022/08/23 05:53:58;;;;;;;7.93;6.90;;;18.70;99.90;;;;;;5047661;28;20183;-67
2022/08/23 05:56:27;;;;;;;10.83;7.97;;;18.90;99.90;;;;;;5053525;28;20202;-66
2022/08/23 05:58:57;;;;;;;9.37;7.07;;;19.10;99.90;;;;;;5047863;28;20207;-67
2022/08/23 06:01:23;;;;;;;10.83;7.30;;;19.40;99.90;;;;;;5033577;28;20186;-66
2022/08/23 06:03:49;;;;;;;13.43;6.87;;;19.60;99.90;;;;;;5033052;28;20234;-67
2022/08/23 06:06:15;;;;;;;12.48;6.68;;;19.90;99.90;;;;;;5033341;28;20206;-67
2022/08/23 06:08:45;;;;;;;7.45;6.43;;;20.20;99.90;;;;;;5033369;28;20706;-67
2022/08/23 06:11:23;;;;;;;8.55;6.85;;;20.50;99.90;;;;;;5033343;28;20298;-67
2022/08/23 06:13:52;;;;;;;12.85;7.13;;;20.90;99.90;;;;;;5033035;28;20183;-67
2022/08/23 06:16:22;;;;;;;9.05;6.60;;;21.10;99.90;;;;;;5033097;28;20200;-67
2022/08/23 06:18:49;;;;;;;13.73;6.82;;;21.30;99.90;;;;;;5033180;28;20215;-67
2022/08/23 06:21:15;;;;;;;9.27;5.85;;;21.40;99.90;;;;;;5033215;28;20175;-67
2022/08/23 06:23:42;;;;;;;7.57;6.68;;;21.50;99.90;;;;;;5032796;28;20172;-67
2022/08/23 06:26:19;;;;;;;10.13;7.18;;;21.50;99.90;;;;;;5031564;28;20692;-67
2022/08/23 06:28:47;;;;;;;9.02;6.63;;;21.50;99.90;;;;;;5031926;28;20179;-66
2022/08/23 06:31:13;;;;;;;12.40;7.10;;;21.50;99.90;;;;;;5029121;28;20543;-67
2022/08/23 06:33:41;;;;;;;17.63;6.45;;;21.60;99.90;;;;;;5032478;28;20182;-65
2022/08/23 06:36:12;;;;;;;13.55;8.07;;;21.60;99.90;;;;;;5032303;28;20695;-66
2022/08/23 06:38:39;;;;;;;14.85;7.50;;;21.70;99.90;;;;;;5032438;28;20191;-65
2022/08/23 06:41:09;;;;;;;10.77;6.55;;;21.80;99.90;;;;;;5032480;28;20236;-67
2022/08/23 06:43:35;;;;;;;9.38;6.43;;;21.90;99.90;;;;;;5032248;28;20178;-66
2022/08/23 06:46:10;;;;;;;7.60;6.82;;;22.00;99.90;;;;;;5032049;28;20631;-66
2022/08/23 06:48:36;;;;;;;8.57;6.22;;;22.30;99.90;;;;;;5032392;28;20257;-67
2022/08/23 06:51:02;;;;;;;8.73;5.80;;;22.50;99.90;;;;;;5032128;28;20190;-64
2022/08/23 06:53:27;;;;;;;8.23;5.72;;;22.70;99.90;;;;;;5032167;28;20187;-65
2022/08/23 06:55:53;;;;;;;9.57;5.60;;;22.90;99.90;;;;;;5031750;28;20282;-66
2022/08/23 06:58:19;;;;;;;9.55;5.78;;;23.10;99.90;;;;;;5032121;28;20242;-66
2022/08/23 07:00:45;;;;;;;10.30;6.95;;;23.20;99.90;;;;;;5030135;28;20175;-66
2022/08/23 07:03:11;;;;;;;9.82;6.45;;;23.40;99.90;;;;;;5032307;28;20574;-67
2022/08/23 07:05:36;;;;;;;7.05;5.78;;;23.50;99.90;;;;;;5030220;28;20597;-67
2022/08/23 07:08:02;;;;;;;7.13;5.95;;;23.60;99.90;;;;;;5031802;28;20187;-65
2022/08/23 07:10:28;;;;;;;14.68;5.78;;;23.90;99.90;;;;;;5032078;28;20172;-65
2022/08/23 07:12:53;;;;;;;10.27;6.25;;;24.30;99.90;;;;;;5031779;28;20191;-67
2022/08/23 07:15:19;;;;;;;6.38;5.63;;;24.70;99.90;;;;;;5031753;28;20175;-65
2022/08/23 07:17:46;;;;;;;12.73;6.15;;;25.20;99.90;;;;;;5031776;28;20206;-65
2022/08/23 07:20:11;;;;;;;7.93;5.63;;;25.70;99.90;;;;;;5031930;28;20513;-67
2022/08/23 07:22:37;;;;;;;8.48;5.82;;;26.10;99.90;;;;;;5031888;28;20179;-66
2022/08/23 07:25:03;;;;;;;14.05;6.22;;;26.60;99.90;;;;;;5031323;28;20176;-64
2022/08/23 07:27:29;;;;;;;9.40;6.32;;;27.00;99.90;;;;;;5031698;28;20569;-64
2022/08/23 07:29:55;;;;;;;6.93;5.78;;;27.30;99.90;;;;;;5031411;28;20184;-64
2022/08/23 07:32:20;;;;;;;5.60;5.05;;;27.60;99.90;;;;;;5030189;28;20215;-64
2022/08/23 07:34:46;;;;;;;11.75;6.53;;;28.00;99.90;;;;;;5029652;28;20274;-65
2022/08/23 07:37:12;;;;;;;7.55;5.10;;;28.10;99.90;;;;;;5031279;28;20191;-64
2022/08/23 07:39:38;;;;;;;12.32;5.50;;;28.30;99.90;;;;;;5031419;28;20252;-65
2022/08/23 07:42:04;;;;;;;9.40;5.43;;;28.50;99.90;;;;;;5031449;28;20181;-63
2022/08/23 07:44:30;;;;;;;9.75;5.25;;;28.70;99.90;;;;;;5031138;28;20439;-64
2022/08/23 07:46:56;;;;;;;10.65;5.10;;;29.00;99.90;;;;;;5031198;28;20203;-64
2022/08/23 07:49:22;;;;;;;6.38;5.45;;;29.20;99.90;;;;;;5031195;28;20183;-64
2022/08/23 07:51:50;;;;;;;8.45;4.88;;;29.50;99.90;;;;;;5031168;28;20187;-63
2022/08/23 07:54:17;;;;;;;7.55;4.53;;;29.70;99.90;;;;;;5030946;28;20229;-64
2022/08/23 07:56:43;;;;;;;5.82;4.93;;;30.20;99.90;;;;;;5031390;28;20211;-64
2022/08/23 07:59:10;;;;;;;5.43;4.72;;;30.60;99.90;;;;;;5031277;28;20607;-64
2022/08/23 08:01:36;;;;;;;8.60;4.32;;;30.70;99.90;;;;;;5031083;28;20732;-64
2022/08/23 08:04:04;;;;;;;6.90;4.38;;;31.10;99.90;;;;;;5030762;28;20652;-65
2022/08/23 08:06:33;;;;;;;8.95;4.75;;;31.50;99.90;;;;;;5030064;28;20198;-65
2022/08/23 08:08:59;;;;;;;9.20;4.80;;;31.70;99.90;;;;;;5031520;28;20180;-65
2022/08/23 08:11:28;;;;;;;7.22;4.60;;;32.00;99.90;;;;;;5030937;28;20653;-64
2022/08/23 08:13:55;;;;;;;10.90;5.07;;;32.10;99.90;;;;;;5030927;28;20597;-64
2022/08/23 08:16:39;;;;;;;7.05;4.50;;;32.20;99.90;;;;;;5030700;28;20290;-65
2022/08/23 08:19:07;;;;;;;6.68;3.90;;;32.20;99.90;;;;;;5011614;28;20677;-64
2022/08/23 08:21:33;;;;;;;8.32;4.65;;;32.20;99.90;;;;;;5029226;28;20193;-65
2022/08/23 08:23:59;;;;;;;5.28;4.53;;;32.30;99.90;;;;;;5030653;28;20191;-64
2022/08/23 08:26:26;;;;;;;4.63;4.03;;;32.60;99.90;;;;;;5031195;28;20195;-64
2022/08/23 08:28:54;;;;;;;6.90;4.72;;;32.60;99.90;;;;;;5031480;28;20182;-66
2022/08/23 08:31:20;;;;;;;11.32;5.00;;;32.40;99.90;;;;;;5030968;28;20644;-64
2022/08/23 08:33:46;;;;;;;7.82;4.43;;;32.60;99.90;;;;;;5030105;28;20186;-64
2022/08/23 08:36:40;;;;;;;6.20;4.00;;;33.00;99.90;;;;;;5029944;28;20203;-64
2022/08/23 08:39:11;;;;;;;10.10;4.40;;;33.50;99.90;;;;;;5054278;28;20250;-65
2022/08/23 08:41:57;;;;;;;9.02;4.93;;;33.60;99.90;;;;;;5054265;28;20170;-65
2022/08/23 08:44:44;;;;;;;6.72;5.63;;;33.70;99.90;;;;;;5046367;28;20246;-65
2022/08/23 08:47:19;;;;;;;5.68;5.03;;;33.60;99.50;;;;;;5034691;28;20209;-65
2022/08/23 08:49:50;;;;;;;5.95;4.00;;;33.60;99.60;;;;;;5034655;28;20265;-65
2022/08/23 08:52:24;;;;;;;6.40;4.00;;;33.70;99.90;;;;;;5034716;28;20175;-64
2022/08/23 08:55:05;;;;;;;6.15;3.50;;;34.00;99.30;;;;;;5034256;28;20187;-65
2022/08/23 08:57:40;;;;;;;5.32;3.30;;;34.10;97.80;;;;;;5034538;28;20245;-65
2022/08/23 09:00:35;;;;;;;5.63;3.55;;;34.30;98.30;;;;;;5034321;28;20213;-65
2022/08/23 09:03:08;;;;;;;4.75;3.83;;;34.50;97.40;;;;;;5027156;28;20604;-65
2022/08/23 09:05:38;;;;;;;6.00;3.97;;;34.60;96.50;;;;;;5034227;28;20203;-65
2022/08/23 09:08:34;;;;;;;6.05;4.40;;;34.40;95.00;;;;;;5034135;28;20569;-65
2022/08/23 09:11:23;;;;;;;6.13;3.00;;;34.60;96.70;;;;;;5034534;28;20175;-65
2022/08/23 09:14:14;;;;;;;6.43;3.55;;;35.00;96.80;;;;;;5033561;28;20186;-66
2022/08/23 09:16:49;;;;;;;3.85;2.95;;;35.20;94.60;;;;;;5033560;28;20221;-66
2022/08/23 09:19:16;;;;;;;5.85;3.20;;;34.90;95.30;;;;;;5034268;28;20202;-64
2022/08/23 09:21:44;;;;;;;7.57;3.45;;;35.00;94.70;;;;;;5033012;28;20175;-64
2022/08/23 09:24:10;;;;;;;10.65;3.67;;;34.60;93.90;;;;;;5037651;28;20179;-65
2022/08/23 09:26:36;;;;;;;7.03;3.53;;;34.30;95.30;;;;;;5035530;28;20210;-65
2022/08/23 09:29:30;;;;;;;4.63;3.45;;;34.40;94.80;;;;;;5035819;28;20183;-65
2022/08/23 09:32:01;;;;;;;4.63;3.55;;;34.80;94.80;;;;;;5030833;28;20699;-64
2022/08/23 09:34:29;;;;;;;4.15;3.17;;;35.20;95.20;;;;;;5033732;28;20172;-66
2022/08/23 09:37:08;;;;;;;4.00;3.15;;;36.00;94.20;;;;;;5033571;28;20565;-66
2022/08/23 09:39:36;;;;;;;3.42;3.03;;;36.40;92.20;;;;;;5032707;28;20222;-63
2022/08/23 09:42:02;;;;;;;6.28;3.15;;;36.30;91.30;;;;;;5050797;28;20193;-65
2022/08/23 09:44:35;;;;;;;3.75;3.17;;;36.20;91.50;;;;;;5033187;28;20278;-64
2022/08/23 09:47:07;;;;;;;8.13;3.20;;;36.10;90.70;;;;;;5033736;28;20230;-66
2022/08/23 09:49:33;;;;;;;4.00;3.17;;;36.00;89.00;;;;;;5032136;28;20548;-66
2022/08/23 09:52:08;;;;;;;4.15;3.10;;;35.90;89.50;;;;;;5033544;28;20172;-65
2022/08/23 09:54:35;;;;;;;5.28;3.28;;;35.60;89.20;;;;;;5033062;28;20198;-65
2022/08/23 09:57:05;;;;;;;5.68;3.10;;;35.40;90.20;;;;;;5045328;28;20328;-65
2022/08/23 09:59:38;;;;;;;6.95;3.55;;;35.20;89.80;;;;;;5052202;28;20554;-65
2022/08/23 10:02:05;;;;;;;5.50;3.42;;;35.00;89.70;;;;;;5053406;28;20177;-65
2022/08/23 10:04:43;;;;;;;7.75;3.72;;;35.10;90.80;;;;;;5033466;28;20175;-65
2022/08/23 10:07:24;;;;;;;6.22;3.65;;;35.50;89.10;;;;;;5033286;28;20274;-64
2022/08/23 10:09:50;;;;;;;6.32;3.55;;;35.60;88.60;;;;;;5033460;28;20260;-64
2022/08/23 10:12:16;;;;;;;6.45;4.03;;;35.60;86.00;;;;;;5033448;28;20206;-66
2022/08/23 10:14:42;;;;;;;6.07;3.30;;;35.20;85.50;;;;;;5013250;28;20227;-65
2022/08/23 10:17:13;;;;;;;4.30;3.67;;;35.30;86.30;;;;;;5013528;28;20199;-65
2022/08/23 10:20:14;;;;;;;5.28;3.50;;;35.10;86.60;;;;;;5032499;28;20337;-66
2022/08/23 10:22:48;;;;;;;5.80;5.30;;;35.20;89.10;;;;;;5032999;28;20174;-65
2022/08/23 10:25:26;;;;;;;5.38;4.95;;;35.60;86.50;;;;;;5032980;28;20168;-66
2022/08/23 10:31:10;;;;;;;6.88;4.43;;;36.30;85.10;;;;;;5032950;28;20186;-65
2022/08/23 10:34:04;;;;;;;5.15;4.53;;;36.30;80.00;;;;;;5032690;28;20285;-65
2022/08/23 10:36:54;;;;;;;6.25;3.90;;;35.90;82.20;;;;;;5032702;28;20222;-65
2022/08/23 10:39:28;;;;;;;5.25;3.60;;;36.20;81.10;;;;;;5032364;28;20207;-65
2022/08/23 10:42:00;;;;;;;4.72;3.55;;;36.40;81.70;;;;;;5032980;28;20176;-65
2022/08/23 10:44:44;;;;;;;4.93;3.25;;;36.60;78.40;;;;;;5032511;28;20246;-65
2022/08/23 10:47:29;;;;;;;3.85;2.80;;;37.00;78.40;;;;;;5033152;28;20293;-65
2022/08/23 10:49:59;;;;;;;9.45;3.92;;;35.90;77.10;;;;;;5032716;28;20182;-65
2022/08/23 10:52:38;;;;;;;6.75;5.50;;;34.80;77.90;;;;;;5031838;28;20175;-65
2022/08/23 10:55:16;;;;;;;3.88;3.38;;;34.80;79.30;;;;;;5032981;28;20171;-66
2022/08/23 10:57:45;;;;;;;5.72;5.18;;;35.20;78.50;;;;;;5032755;28;20189;-65
2022/08/23 11:00:25;;;;;;;4.10;3.47;;;36.00;82.80;;;;;;5032099;28;20238;-66
2022/08/23 11:02:56;;;;;;;4.95;3.55;;;36.90;79.60;;;;;;5032543;28;20187;-65
2022/08/23 11:05:32;;;;;;;4.47;3.78;;;37.70;77.00;;;;;;5032144;28;20176;-65
2022/08/23 11:08:06;;;;;;;4.72;3.80;;;38.30;76.60;;;;;;5032511;28;20159;-66
2022/08/23 11:10:38;;;;;;;5.22;3.45;;;38.50;72.80;;;;;;5032498;28;20167;-64
2022/08/23 11:13:25;;;;;;;6.78;3.95;;;38.40;69.70;;;;;;5032263;28;20179;-66
2022/08/23 11:16:12;;;;;;;4.00;3.65;;;38.00;69.80;;;;;;5032082;28;20191;-66
2022/08/23 11:18:47;;;;;;;5.45;3.65;;;37.90;70.60;;;;;;5032143;28;20281;-64
2022/08/23 11:21:16;;;;;;;5.10;3.03;;;37.80;71.60;;;;;;5032351;28;20171;-66
2022/08/23 11:23:49;;;;;;;4.05;3.60;;;37.90;70.80;;;;;;5031806;28;20233;-65
2022/08/23 11:26:28;;;;;;;5.10;3.53;;;37.80;69.00;;;;;;5032016;28;20342;-65
2022/08/23 11:29:17;;;;;;;7.85;3.42;;;38.00;71.70;;;;;;5032221;28;20199;-66
2022/08/23 11:31:56;;;;;;;3.83;3.50;;;38.00;68.10;;;;;;5031879;28;20183;-64
2022/08/23 11:34:27;;;;;;;4.07;3.78;;;37.90;69.30;;;;;;5031635;28;20194;-65
2022/08/23 11:37:17;;;;;;;4.00;3.25;;;37.60;66.90;;;;;;5031821;28;20191;-65
2022/08/23 11:39:57;;;;;;;4.50;3.28;;;37.10;67.10;;;;;;5031634;28;20643;-65
2022/08/23 11:42:36;;;;;;;11.43;4.22;;;36.90;69.30;;;;;;5031635;28;20171;-66
2022/08/23 11:45:21;;;;;;;4.00;3.60;;;37.00;67.60;;;;;;5031597;28;20175;-66
2022/08/23 11:48:07;;;;;;;4.93;3.00;;;37.00;66.50;;;;;;5031671;28;20171;-65
2022/08/23 11:50:40;;;;;;;4.30;3.30;;;37.30;69.50;;;;;;5031809;28;20759;-65
2022/08/23 11:53:22;;;;;;;4.35;3.40;;;37.80;68.30;;;;;;5031269;28;20180;-65
2022/08/23 11:55:57;;;;;;;3.78;3.42;;;38.40;67.50;;;;;;5031465;28;20202;-65
2022/08/23 11:58:43;;;;;;;3.97;3.20;;;38.10;65.10;;;;;;5031572;28;20186;-65
2022/08/23 12:01:11;;;;;;;4.57;3.97;;;37.90;66.70;;;;;;5031789;28;20257;-66
2022/08/23 12:03:51;;;;;;;3.20;2.90;;;37.70;64.60;;;;;;5031283;28;20172;-64
2022/08/23 12:06:37;;;;;;;4.55;4.15;;;38.20;67.20;;;;;;5031528;28;20273;-65
2022/08/23 12:09:25;;;;;;;4.68;4.25;;;38.70;63.20;;;;;;5031769;28;20289;-66
2022/08/23 12:11:54;;;;;;;4.28;2.80;;;38.70;63.70;;;;;;5031230;28;20274;-66
2022/08/23 12:14:35;;;;;;;6.80;3.08;;;38.80;64.90;;;;;;5035012;28;20183;-65
2022/08/23 12:17:27;;;;;;;8.38;3.22;;;38.90;62.80;;;;;;5035612;28;20202;-64
2022/08/23 12:19:56;;;;;;;5.10;3.15;;;38.50;63.20;;;;;;4996838;28;20746;-65
2022/08/23 12:22:47;;;;;;;6.88;3.20;;;38.10;64.30;;;;;;5035536;28;20190;-65
2022/08/23 12:25:19;;;;;;;3.92;3.15;;;37.70;63.10;;;;;;5035018;28;20183;-66
2022/08/23 12:27:51;;;;;;;3.97;3.17;;;36.70;62.90;;;;;;5035403;28;20179;-65
2022/08/23 12:30:21;;;;;;;9.75;3.00;;;35.60;65.00;;;;;;5035231;28;20203;-64
2022/08/23 12:32:46;;;;;;;7.15;3.13;;;34.80;67.90;;;;;;5035220;28;20168;-64
2022/08/23 12:35:39;;;;;;;6.55;3.22;;;34.80;68.40;;;;;;5034026;28;20527;-65
2022/08/23 12:38:26;;;;;;;5.35;4.95;;;35.50;66.20;;;;;;5034656;28;20648;-64
2022/08/23 12:40:53;;;;;;;5.28;3.38;;;36.30;68.50;;;;;;5034691;28;20265;-64
2022/08/23 12:43:25;;;;;;;4.47;3.25;;;37.30;66.00;;;;;;5047344;28;20171;-65
2022/08/23 12:45:59;;;;;;;4.22;2.92;;;37.50;66.20;;;;;;5054883;28;20207;-66
2022/08/23 12:48:43;;;;;;;7.72;3.05;;;37.30;64.60;;;;;;5034523;28;20232;-63
2022/08/23 12:51:11;;;;;;;3.25;2.95;;;37.20;65.90;;;;;;5035168;28;20206;-64
2022/08/23 12:53:41;;;;;;;3.08;2.88;;;37.40;66.20;;;;;;5034622;28;20178;-66
2022/08/23 12:56:22;;;;;;;3.90;3.33;;;37.60;64.60;;;;;;5034541;28;20195;-64
2022/08/23 12:58:55;;;;;;;7.57;3.42;;;38.00;65.30;;;;;;5025258;28;20195;-66
2022/08/23 13:01:26;;;;;;;4.18;3.10;;;38.70;65.20;;;;;;5033481;28;20176;-65
2022/08/23 13:04:02;;;;;;;4.38;3.22;;;39.40;64.80;;;;;;5034191;28;20266;-66
2022/08/23 13:06:34;;;;;;;3.83;2.78;;;39.80;63.50;;;;;;5033535;28;20201;-65
2022/08/23 13:09:07;;;;;;;2.88;2.67;;;40.60;63.50;;;;;;5033584;28;20236;-66
2022/08/23 13:11:35;;;;;;;5.13;2.53;;;40.50;60.50;;;;;;5037362;28;20187;-65